sensor_id;sensor_type;location;lat;lon;timestamp;P1;durP1;ratioP1;P2;durP2;ratioP2
32824;SDS011;51060;42.640;24.356;2023-04-15T00:01:08;45.43;;;24.70;;
32824;SDS011;51060;42.640;24.356;2023-04-15T00:03:34;35.97;;;20.67;;
32824;SDS011;51060;42.640;24.356;2023-04-15T00:06:00;35.37;;;20.40;;
32824;SDS011;51060;42.640;24.356;2023-04-15T00:08:26;31.97;;;19.60;;
32824;SDS011;51060;42.640;24.356;2023-04-15T00:10:51;42.40;;;22.50;;
32824;SDS011;51060;42.640;24.356;2023-04-15T00:13:17;47.80;;;24.13;;
32824;SDS011;51060;42.640;24.356;2023-04-15T00:15:42;39.13;;;21.00;;
32824;SDS011;51060;42.640;24.356;2023-04-15T00:18:08;56.30;;;26.63;;
32824;SDS011;51060;42.640;24.356;2023-04-15T00:20:34;51.43;;;25.67;;
32824;SDS011;51060;42.640;24.356;2023-04-15T00:23:01;46.87;;;23.80;;
32824;SDS011;51060;42.640;24.356;2023-04-15T00:25:28;39.90;;;21.83;;
32824;SDS011;51060;42.640;24.356;2023-04-15T00:27:53;50.33;;;25.50;;
32824;SDS011;51060;42.640;24.356;2023-04-15T00:30:19;55.63;;;27.60;;
32824;SDS011;51060;42.640;24.356;2023-04-15T00:32:45;43.10;;;22.43;;
32824;SDS011;51060;42.640;24.356;2023-04-15T00:35:10;38.07;;;20.57;;
32824;SDS011;51060;42.640;24.356;2023-04-15T00:37:36;31.47;;;17.40;;
32824;SDS011;51060;42.640;24.356;2023-04-15T00:40:02;66.37;;;21.63;;
32824;SDS011;51060;42.640;24.356;2023-04-15T00:42:30;129.83;;;29.53;;
32824;SDS011;51060;42.640;24.356;2023-04-15T00:44:56;77.40;;;25.00;;
32824;SDS011;51060;42.640;24.356;2023-04-15T00:47:21;100.13;;;26.47;;
32824;SDS011;51060;42.640;24.356;2023-04-15T00:49:47;109.80;;;28.53;;
32824;SDS011;51060;42.640;24.356;2023-04-15T00:52:13;150.37;;;34.57;;
32824;SDS011;51060;42.640;24.356;2023-04-15T00:54:38;140.60;;;30.67;;
32824;SDS011;51060;42.640;24.356;2023-04-15T00:57:05;162.30;;;31.20;;
32824;SDS011;51060;42.640;24.356;2023-04-15T00:59:32;96.87;;;31.37;;
32824;SDS011;51060;42.640;24.356;2023-04-15T01:01:58;158.03;;;33.73;;
32824;SDS011;51060;42.640;24.356;2023-04-15T01:04:24;94.40;;;24.43;;
32824;SDS011;51060;42.640;24.356;2023-04-15T01:06:50;112.00;;;26.70;;
32824;SDS011;51060;42.640;24.356;2023-04-15T01:09:16;94.60;;;25.83;;
32824;SDS011;51060;42.640;24.356;2023-04-15T01:11:42;58.60;;;24.80;;
32824;SDS011;51060;42.640;24.356;2023-04-15T01:14:08;54.43;;;24.63;;
32824;SDS011;51060;42.640;24.356;2023-04-15T01:16:35;53.50;;;20.47;;
32824;SDS011;51060;42.640;24.356;2023-04-15T01:19:04;47.47;;;18.53;;
32824;SDS011;51060;42.640;24.356;2023-04-15T01:21:31;34.37;;;17.17;;
32824;SDS011;51060;42.640;24.356;2023-04-15T01:23:57;32.90;;;16.00;;
32824;SDS011;51060;42.640;24.356;2023-04-15T01:26:23;47.53;;;18.17;;
32824;SDS011;51060;42.640;24.356;2023-04-15T01:28:48;30.27;;;16.20;;
32824;SDS011;51060;42.640;24.356;2023-04-15T01:31:14;31.03;;;15.57;;
32824;SDS011;51060;42.640;24.356;2023-04-15T01:33:41;28.50;;;14.73;;
32824;SDS011;51060;42.640;24.356;2023-04-15T01:36:07;49.13;;;16.17;;
32824;SDS011;51060;42.640;24.356;2023-04-15T01:38:34;46.77;;;17.57;;
32824;SDS011;51060;42.640;24.356;2023-04-15T01:41:03;53.97;;;17.27;;
32824;SDS011;51060;42.640;24.356;2023-04-15T01:43:29;63.80;;;17.33;;
32824;SDS011;51060;42.640;24.356;2023-04-15T01:45:54;32.30;;;14.40;;
32824;SDS011;51060;42.640;24.356;2023-04-15T01:48:20;32.03;;;13.57;;
32824;SDS011;51060;42.640;24.356;2023-04-15T01:50:47;29.67;;;13.87;;
32824;SDS011;51060;42.640;24.356;2023-04-15T01:53:13;43.50;;;15.33;;
32824;SDS011;51060;42.640;24.356;2023-04-15T01:55:39;50.27;;;13.13;;
32824;SDS011;51060;42.640;24.356;2023-04-15T01:58:05;66.10;;;14.10;;
32824;SDS011;51060;42.640;24.356;2023-04-15T02:00:30;99.27;;;16.70;;
32824;SDS011;51060;42.640;24.356;2023-04-15T02:02:56;41.53;;;15.30;;
32824;SDS011;51060;42.640;24.356;2023-04-15T02:05:23;79.77;;;17.90;;
32824;SDS011;51060;42.640;24.356;2023-04-15T02:07:49;50.13;;;18.57;;
32824;SDS011;51060;42.640;24.356;2023-04-15T02:10:15;74.40;;;17.63;;
32824;SDS011;51060;42.640;24.356;2023-04-15T02:12:41;48.97;;;15.00;;
32824;SDS011;51060;42.640;24.356;2023-04-15T02:15:07;33.53;;;17.17;;
32824;SDS011;51060;42.640;24.356;2023-04-15T02:17:34;77.67;;;19.40;;
32824;SDS011;51060;42.640;24.356;2023-04-15T02:20:00;36.70;;;16.27;;
32824;SDS011;51060;42.640;24.356;2023-04-15T02:22:26;53.97;;;18.07;;
32824;SDS011;51060;42.640;24.356;2023-04-15T02:24:53;137.00;;;23.07;;
32824;SDS011;51060;42.640;24.356;2023-04-15T02:27:18;98.83;;;19.33;;
32824;SDS011;51060;42.640;24.356;2023-04-15T02:29:44;76.67;;;20.73;;
32824;SDS011;51060;42.640;24.356;2023-04-15T02:32:10;95.60;;;21.63;;
32824;SDS011;51060;42.640;24.356;2023-04-15T02:34:37;77.90;;;22.30;;
32824;SDS011;51060;42.640;24.356;2023-04-15T02:37:06;39.83;;;17.53;;
32824;SDS011;51060;42.640;24.356;2023-04-15T02:39:32;56.03;;;17.67;;
32824;SDS011;51060;42.640;24.356;2023-04-15T02:41:57;72.97;;;20.27;;
32824;SDS011;51060;42.640;24.356;2023-04-15T02:44:24;42.10;;;18.13;;
32824;SDS011;51060;42.640;24.356;2023-04-15T02:46:51;42.00;;;17.77;;
32824;SDS011;51060;42.640;24.356;2023-04-15T02:49:21;103.23;;;22.33;;
32824;SDS011;51060;42.640;24.356;2023-04-15T02:51:47;56.67;;;19.73;;
32824;SDS011;51060;42.640;24.356;2023-04-15T02:54:19;190.10;;;21.63;;
32824;SDS011;51060;42.640;24.356;2023-04-15T02:56:47;101.20;;;19.33;;
32824;SDS011;51060;42.640;24.356;2023-04-15T02:59:12;227.80;;;22.23;;
32824;SDS011;51060;42.640;24.356;2023-04-15T03:01:38;63.30;;;15.60;;
32824;SDS011;51060;42.640;24.356;2023-04-15T03:04:04;77.90;;;15.53;;
32824;SDS011;51060;42.640;24.356;2023-04-15T03:06:30;71.73;;;15.67;;
32824;SDS011;51060;42.640;24.356;2023-04-15T03:08:55;56.93;;;15.63;;
32824;SDS011;51060;42.640;24.356;2023-04-15T03:11:21;50.40;;;14.00;;
32824;SDS011;51060;42.640;24.356;2023-04-15T03:13:47;54.13;;;17.03;;
32824;SDS011;51060;42.640;24.356;2023-04-15T03:16:12;92.57;;;21.17;;
32824;SDS011;51060;42.640;24.356;2023-04-15T03:18:38;86.00;;;25.00;;
32824;SDS011;51060;42.640;24.356;2023-04-15T03:21:04;36.87;;;20.30;;
32824;SDS011;51060;42.640;24.356;2023-04-15T03:23:31;45.03;;;18.40;;
32824;SDS011;51060;42.640;24.356;2023-04-15T03:25:56;45.47;;;21.07;;
32824;SDS011;51060;42.640;24.356;2023-04-15T03:28:23;73.27;;;23.13;;
32824;SDS011;51060;42.640;24.356;2023-04-15T03:30:49;50.97;;;18.60;;
32824;SDS011;51060;42.640;24.356;2023-04-15T03:33:15;42.00;;;17.57;;
32824;SDS011;51060;42.640;24.356;2023-04-15T03:35:41;58.33;;;21.00;;
32824;SDS011;51060;42.640;24.356;2023-04-15T03:38:06;47.80;;;22.13;;
32824;SDS011;51060;42.640;24.356;2023-04-15T03:40:32;69.80;;;23.87;;
32824;SDS011;51060;42.640;24.356;2023-04-15T03:42:58;66.60;;;26.80;;
32824;SDS011;51060;42.640;24.356;2023-04-15T03:45:24;64.67;;;31.13;;
32824;SDS011;51060;42.640;24.356;2023-04-15T03:47:49;53.93;;;26.73;;
32824;SDS011;51060;42.640;24.356;2023-04-15T03:50:15;43.07;;;23.03;;
32824;SDS011;51060;42.640;24.356;2023-04-15T03:52:41;47.47;;;21.87;;
32824;SDS011;51060;42.640;24.356;2023-04-15T03:55:06;42.93;;;22.50;;
32824;SDS011;51060;42.640;24.356;2023-04-15T03:57:33;69.80;;;26.23;;
32824;SDS011;51060;42.640;24.356;2023-04-15T04:00:05;58.37;;;24.03;;
32824;SDS011;51060;42.640;24.356;2023-04-15T04:02:33;68.93;;;20.53;;
32824;SDS011;51060;42.640;24.356;2023-04-15T04:04:58;43.03;;;21.60;;
32824;SDS011;51060;42.640;24.356;2023-04-15T04:07:24;36.60;;;21.50;;
32824;SDS011;51060;42.640;24.356;2023-04-15T04:09:50;37.10;;;20.80;;
32824;SDS011;51060;42.640;24.356;2023-04-15T04:12:15;38.00;;;19.97;;
32824;SDS011;51060;42.640;24.356;2023-04-15T04:14:41;45.80;;;21.07;;
32824;SDS011;51060;42.640;24.356;2023-04-15T04:17:06;36.97;;;17.13;;
32824;SDS011;51060;42.640;24.356;2023-04-15T04:19:32;29.47;;;17.27;;
32824;SDS011;51060;42.640;24.356;2023-04-15T04:21:58;41.57;;;25.20;;
32824;SDS011;51060;42.640;24.356;2023-04-15T04:24:23;108.93;;;56.13;;
32824;SDS011;51060;42.640;24.356;2023-04-15T04:26:49;118.03;;;52.70;;
32824;SDS011;51060;42.640;24.356;2023-04-15T04:29:15;60.63;;;32.07;;
32824;SDS011;51060;42.640;24.356;2023-04-15T04:31:40;61.87;;;33.70;;
32824;SDS011;51060;42.640;24.356;2023-04-15T04:34:06;47.83;;;24.63;;
32824;SDS011;51060;42.640;24.356;2023-04-15T04:36:31;46.67;;;26.57;;
32824;SDS011;51060;42.640;24.356;2023-04-15T04:38:57;60.23;;;33.93;;
32824;SDS011;51060;42.640;24.356;2023-04-15T04:41:25;74.00;;;38.87;;
32824;SDS011;51060;42.640;24.356;2023-04-15T04:43:51;82.70;;;43.00;;
32824;SDS011;51060;42.640;24.356;2023-04-15T04:46:16;96.70;;;49.03;;
32824;SDS011;51060;42.640;24.356;2023-04-15T04:48:42;95.30;;;47.47;;
32824;SDS011;51060;42.640;24.356;2023-04-15T04:51:07;121.37;;;48.97;;
32824;SDS011;51060;42.640;24.356;2023-04-15T04:53:33;107.40;;;52.67;;
32824;SDS011;51060;42.640;24.356;2023-04-15T04:55:59;84.90;;;44.20;;
32824;SDS011;51060;42.640;24.356;2023-04-15T04:58:24;92.93;;;43.33;;
32824;SDS011;51060;42.640;24.356;2023-04-15T05:00:50;77.67;;;44.83;;
32824;SDS011;51060;42.640;24.356;2023-04-15T05:03:16;66.03;;;41.80;;
32824;SDS011;51060;42.640;24.356;2023-04-15T05:05:41;57.20;;;34.93;;
32824;SDS011;51060;42.640;24.356;2023-04-15T05:08:09;50.37;;;32.57;;
32824;SDS011;51060;42.640;24.356;2023-04-15T05:10:35;58.60;;;37.63;;
32824;SDS011;51060;42.640;24.356;2023-04-15T05:13:00;56.43;;;37.73;;
32824;SDS011;51060;42.640;24.356;2023-04-15T05:15:26;65.37;;;41.50;;
32824;SDS011;51060;42.640;24.356;2023-04-15T05:17:52;75.13;;;50.23;;
32824;SDS011;51060;42.640;24.356;2023-04-15T05:20:17;82.40;;;57.10;;
32824;SDS011;51060;42.640;24.356;2023-04-15T05:22:43;98.30;;;64.63;;
32824;SDS011;51060;42.640;24.356;2023-04-15T05:25:08;97.83;;;64.40;;
32824;SDS011;51060;42.640;24.356;2023-04-15T05:27:34;99.33;;;64.47;;
32824;SDS011;51060;42.640;24.356;2023-04-15T05:30:00;94.50;;;64.53;;
32824;SDS011;51060;42.640;24.356;2023-04-15T05:32:25;90.80;;;60.47;;
32824;SDS011;51060;42.640;24.356;2023-04-15T05:34:51;69.37;;;46.47;;
32824;SDS011;51060;42.640;24.356;2023-04-15T05:37:17;41.97;;;30.77;;
32824;SDS011;51060;42.640;24.356;2023-04-15T05:39:45;62.70;;;47.53;;
32824;SDS011;51060;42.640;24.356;2023-04-15T05:42:11;76.97;;;52.47;;
32824;SDS011;51060;42.640;24.356;2023-04-15T05:44:36;90.37;;;59.80;;
32824;SDS011;51060;42.640;24.356;2023-04-15T05:47:02;98.13;;;58.70;;
32824;SDS011;51060;42.640;24.356;2023-04-15T05:49:27;92.83;;;60.33;;
32824;SDS011;51060;42.640;24.356;2023-04-15T05:51:55;98.97;;;64.90;;
32824;SDS011;51060;42.640;24.356;2023-04-15T05:54:24;99.87;;;68.70;;
32824;SDS011;51060;42.640;24.356;2023-04-15T05:56:52;92.67;;;64.53;;
32824;SDS011;51060;42.640;24.356;2023-04-15T05:59:17;79.50;;;59.77;;
32824;SDS011;51060;42.640;24.356;2023-04-15T06:01:43;75.97;;;55.73;;
32824;SDS011;51060;42.640;24.356;2023-04-15T06:04:09;83.47;;;54.73;;
32824;SDS011;51060;42.640;24.356;2023-04-15T06:06:35;81.17;;;52.87;;
32824;SDS011;51060;42.640;24.356;2023-04-15T06:09:02;67.03;;;47.43;;
32824;SDS011;51060;42.640;24.356;2023-04-15T06:11:28;40.10;;;32.67;;
32824;SDS011;51060;42.640;24.356;2023-04-15T06:13:54;42.47;;;29.73;;
32824;SDS011;51060;42.640;24.356;2023-04-15T06:16:19;34.00;;;26.00;;
32824;SDS011;51060;42.640;24.356;2023-04-15T06:18:45;35.57;;;27.07;;
32824;SDS011;51060;42.640;24.356;2023-04-15T06:21:10;35.70;;;28.07;;
32824;SDS011;51060;42.640;24.356;2023-04-15T06:23:36;34.33;;;26.80;;
32824;SDS011;51060;42.640;24.356;2023-04-15T06:26:05;33.77;;;26.63;;
32824;SDS011;51060;42.640;24.356;2023-04-15T06:28:31;46.20;;;34.03;;
32824;SDS011;51060;42.640;24.356;2023-04-15T06:30:56;36.03;;;29.70;;
32824;SDS011;51060;42.640;24.356;2023-04-15T06:33:22;44.77;;;35.60;;
32824;SDS011;51060;42.640;24.356;2023-04-15T06:35:47;47.03;;;34.60;;
32824;SDS011;51060;42.640;24.356;2023-04-15T06:38:13;43.47;;;34.53;;
32824;SDS011;51060;42.640;24.356;2023-04-15T06:40:39;50.57;;;38.50;;
32824;SDS011;51060;42.640;24.356;2023-04-15T06:43:05;47.20;;;35.13;;
32824;SDS011;51060;42.640;24.356;2023-04-15T06:45:30;47.47;;;36.97;;
32824;SDS011;51060;42.640;24.356;2023-04-15T06:47:56;54.27;;;40.20;;
32824;SDS011;51060;42.640;24.356;2023-04-15T06:50:22;64.53;;;47.33;;
32824;SDS011;51060;42.640;24.356;2023-04-15T06:52:47;58.80;;;45.20;;
32824;SDS011;51060;42.640;24.356;2023-04-15T06:55:15;64.73;;;47.30;;
32824;SDS011;51060;42.640;24.356;2023-04-15T06:57:40;33.70;;;26.27;;
32824;SDS011;51060;42.640;24.356;2023-04-15T07:00:06;23.93;;;16.40;;
32824;SDS011;51060;42.640;24.356;2023-04-15T07:02:35;11.23;;;8.40;;
32824;SDS011;51060;42.640;24.356;2023-04-15T07:05:00;3.73;;;2.83;;
32824;SDS011;51060;42.640;24.356;2023-04-15T07:07:26;7.13;;;5.03;;
32824;SDS011;51060;42.640;24.356;2023-04-15T07:09:51;8.73;;;4.63;;
32824;SDS011;51060;42.640;24.356;2023-04-15T07:12:20;6.00;;;2.67;;
32824;SDS011;51060;42.640;24.356;2023-04-15T07:14:46;6.60;;;3.77;;
32824;SDS011;51060;42.640;24.356;2023-04-15T07:17:11;4.87;;;1.70;;
32824;SDS011;51060;42.640;24.356;2023-04-15T07:19:37;4.30;;;2.10;;
32824;SDS011;51060;42.640;24.356;2023-04-15T07:22:03;4.20;;;1.97;;
32824;SDS011;51060;42.640;24.356;2023-04-15T07:24:28;3.30;;;1.37;;
32824;SDS011;51060;42.640;24.356;2023-04-15T07:26:55;5.43;;;1.90;;
32824;SDS011;51060;42.640;24.356;2023-04-15T07:29:22;8.13;;;2.93;;
32824;SDS011;51060;42.640;24.356;2023-04-15T07:31:48;8.10;;;6.03;;
32824;SDS011;51060;42.640;24.356;2023-04-15T07:34:13;7.67;;;4.80;;
32824;SDS011;51060;42.640;24.356;2023-04-15T07:36:39;9.13;;;4.47;;
32824;SDS011;51060;42.640;24.356;2023-04-15T07:39:05;4.40;;;3.20;;
32824;SDS011;51060;42.640;24.356;2023-04-15T07:41:30;4.17;;;2.63;;
32824;SDS011;51060;42.640;24.356;2023-04-15T07:43:56;2.13;;;1.53;;
32824;SDS011;51060;42.640;24.356;2023-04-15T07:46:22;3.97;;;2.40;;
32824;SDS011;51060;42.640;24.356;2023-04-15T07:48:48;7.07;;;5.47;;
32824;SDS011;51060;42.640;24.356;2023-04-15T07:51:15;4.20;;;2.30;;
32824;SDS011;51060;42.640;24.356;2023-04-15T07:53:41;3.07;;;2.40;;
32824;SDS011;51060;42.640;24.356;2023-04-15T07:56:08;3.93;;;1.10;;
32824;SDS011;51060;42.640;24.356;2023-04-15T07:58:34;5.80;;;3.07;;
32824;SDS011;51060;42.640;24.356;2023-04-15T08:01:00;3.47;;;2.00;;
32824;SDS011;51060;42.640;24.356;2023-04-15T08:03:26;2.20;;;1.50;;
32824;SDS011;51060;42.640;24.356;2023-04-15T08:05:51;11.83;;;8.87;;
32824;SDS011;51060;42.640;24.356;2023-04-15T08:08:18;9.37;;;6.30;;
32824;SDS011;51060;42.640;24.356;2023-04-15T08:10:43;4.47;;;3.30;;
32824;SDS011;51060;42.640;24.356;2023-04-15T08:13:09;5.90;;;4.03;;
32824;SDS011;51060;42.640;24.356;2023-04-15T08:15:35;3.88;;;3.42;;
32824;SDS011;51060;42.640;24.356;2023-04-15T08:18:01;5.70;;;2.50;;
32824;SDS011;51060;42.640;24.356;2023-04-15T08:20:26;3.60;;;2.03;;
32824;SDS011;51060;42.640;24.356;2023-04-15T08:22:52;6.72;;;3.90;;
32824;SDS011;51060;42.640;24.356;2023-04-15T08:25:18;4.43;;;2.10;;
32824;SDS011;51060;42.640;24.356;2023-04-15T08:27:47;3.35;;;1.35;;
32824;SDS011;51060;42.640;24.356;2023-04-15T08:30:12;14.02;;;8.35;;
32824;SDS011;51060;42.640;24.356;2023-04-15T08:32:38;5.45;;;1.85;;
32824;SDS011;51060;42.640;24.356;2023-04-15T08:35:04;3.25;;;1.50;;
32824;SDS011;51060;42.640;24.356;2023-04-15T08:37:30;4.72;;;2.25;;
32824;SDS011;51060;42.640;24.356;2023-04-15T08:39:56;8.75;;;6.80;;
32824;SDS011;51060;42.640;24.356;2023-04-15T08:42:31;6.85;;;5.43;;
32824;SDS011;51060;42.640;24.356;2023-04-15T08:45:02;5.45;;;2.38;;
32824;SDS011;51060;42.640;24.356;2023-04-15T08:47:29;2.83;;;1.70;;
32824;SDS011;51060;42.640;24.356;2023-04-15T08:49:57;5.57;;;2.60;;
32824;SDS011;51060;42.640;24.356;2023-04-15T08:52:29;2.67;;;1.23;;
32824;SDS011;51060;42.640;24.356;2023-04-15T08:54:56;2.28;;;1.20;;
32824;SDS011;51060;42.640;24.356;2023-04-15T08:57:26;3.60;;;1.30;;
32824;SDS011;51060;42.640;24.356;2023-04-15T08:59:55;3.65;;;1.70;;
32824;SDS011;51060;42.640;24.356;2023-04-15T09:02:22;4.25;;;3.20;;
32824;SDS011;51060;42.640;24.356;2023-04-15T09:04:48;5.70;;;2.72;;
32824;SDS011;51060;42.640;24.356;2023-04-15T09:07:14;3.97;;;1.90;;
32824;SDS011;51060;42.640;24.356;2023-04-15T09:09:40;4.28;;;2.20;;
32824;SDS011;51060;42.640;24.356;2023-04-15T09:12:06;7.20;;;4.38;;
32824;SDS011;51060;42.640;24.356;2023-04-15T09:14:32;6.85;;;3.58;;
32824;SDS011;51060;42.640;24.356;2023-04-15T09:16:59;6.18;;;2.92;;
32824;SDS011;51060;42.640;24.356;2023-04-15T09:19:28;6.75;;;3.80;;
32824;SDS011;51060;42.640;24.356;2023-04-15T09:21:55;5.90;;;2.70;;
32824;SDS011;51060;42.640;24.356;2023-04-15T09:24:21;9.90;;;6.70;;
32824;SDS011;51060;42.640;24.356;2023-04-15T09:26:47;6.28;;;3.75;;
32824;SDS011;51060;42.640;24.356;2023-04-15T09:29:16;2.30;;;1.50;;
32824;SDS011;51060;42.640;24.356;2023-04-15T09:31:42;4.22;;;3.22;;
32824;SDS011;51060;42.640;24.356;2023-04-15T09:34:08;4.85;;;2.15;;
32824;SDS011;51060;42.640;24.356;2023-04-15T09:39:11;4.72;;;2.40;;
32824;SDS011;51060;42.640;24.356;2023-04-15T09:41:37;4.50;;;2.58;;
32824;SDS011;51060;42.640;24.356;2023-04-15T09:44:03;4.75;;;2.92;;
32824;SDS011;51060;42.640;24.356;2023-04-15T09:46:42;2.85;;;1.67;;
32824;SDS011;51060;42.640;24.356;2023-04-15T09:49:09;5.18;;;2.55;;
32824;SDS011;51060;42.640;24.356;2023-04-15T09:51:35;4.40;;;1.90;;
32824;SDS011;51060;42.640;24.356;2023-04-15T09:54:03;5.15;;;2.53;;
32824;SDS011;51060;42.640;24.356;2023-04-15T09:56:36;7.82;;;3.30;;
32824;SDS011;51060;42.640;24.356;2023-04-15T09:59:05;5.78;;;3.30;;
32824;SDS011;51060;42.640;24.356;2023-04-15T10:01:33;4.05;;;2.20;;
32824;SDS011;51060;42.640;24.356;2023-04-15T10:04:03;4.20;;;2.78;;
32824;SDS011;51060;42.640;24.356;2023-04-15T10:06:29;4.97;;;3.35;;
32824;SDS011;51060;42.640;24.356;2023-04-15T10:08:58;8.40;;;6.22;;
32824;SDS011;51060;42.640;24.356;2023-04-15T10:11:25;9.18;;;6.25;;
32824;SDS011;51060;42.640;24.356;2023-04-15T10:13:52;7.40;;;4.05;;
32824;SDS011;51060;42.640;24.356;2023-04-15T10:16:19;5.05;;;2.50;;
32824;SDS011;51060;42.640;24.356;2023-04-15T10:18:46;3.72;;;2.50;;
32824;SDS011;51060;42.640;24.356;2023-04-15T10:21:16;4.13;;;1.92;;
32824;SDS011;51060;42.640;24.356;2023-04-15T10:23:46;5.78;;;3.50;;
32824;SDS011;51060;42.640;24.356;2023-04-15T10:26:11;7.63;;;5.10;;
32824;SDS011;51060;42.640;24.356;2023-04-15T10:28:39;12.23;;;6.20;;
32824;SDS011;51060;42.640;24.356;2023-04-15T10:31:05;13.98;;;11.55;;
32824;SDS011;51060;42.640;24.356;2023-04-15T10:33:31;17.25;;;13.63;;
32824;SDS011;51060;42.640;24.356;2023-04-15T10:35:58;5.80;;;4.38;;
32824;SDS011;51060;42.640;24.356;2023-04-15T10:38:34;7.38;;;3.78;;
32824;SDS011;51060;42.640;24.356;2023-04-15T10:49:47;8.40;;;3.90;;
32824;SDS011;51060;42.640;24.356;2023-04-15T10:51:51;7.03;;;4.10;;
32824;SDS011;51060;42.640;24.356;2023-04-15T10:56:51;8.95;;;5.72;;
32824;SDS011;51060;42.640;24.356;2023-04-15T10:59:33;3.78;;;1.92;;
32824;SDS011;51060;42.640;24.356;2023-04-15T11:02:01;5.13;;;2.42;;
32824;SDS011;51060;42.640;24.356;2023-04-15T11:12:51;6.28;;;2.60;;
32824;SDS011;51060;42.640;24.356;2023-04-15T11:15:59;3.88;;;2.83;;
32824;SDS011;51060;42.640;24.356;2023-04-15T11:20:50;6.85;;;3.63;;
32824;SDS011;51060;42.640;24.356;2023-04-15T11:23:18;4.38;;;3.13;;
32824;SDS011;51060;42.640;24.356;2023-04-15T11:25:53;3.25;;;2.40;;
32824;SDS011;51060;42.640;24.356;2023-04-15T11:28:19;4.97;;;3.75;;
32824;SDS011;51060;42.640;24.356;2023-04-15T11:30:45;3.47;;;2.30;;
32824;SDS011;51060;42.640;24.356;2023-04-15T11:33:11;1.73;;;1.42;;
32824;SDS011;51060;42.640;24.356;2023-04-15T11:35:39;6.30;;;2.22;;
32824;SDS011;51060;42.640;24.356;2023-04-15T11:38:09;4.70;;;1.75;;
32824;SDS011;51060;42.640;24.356;2023-04-15T11:40:36;4.40;;;2.90;;
32824;SDS011;51060;42.640;24.356;2023-04-15T11:43:12;4.43;;;2.60;;
32824;SDS011;51060;42.640;24.356;2023-04-15T11:45:48;4.13;;;1.83;;
32824;SDS011;51060;42.640;24.356;2023-04-15T11:48:22;6.32;;;3.20;;
32824;SDS011;51060;42.640;24.356;2023-04-15T11:50:53;3.13;;;2.80;;
32824;SDS011;51060;42.640;24.356;2023-04-15T11:53:20;5.50;;;3.20;;
32824;SDS011;51060;42.640;24.356;2023-04-15T11:55:47;5.75;;;3.72;;
32824;SDS011;51060;42.640;24.356;2023-04-15T11:58:15;4.93;;;3.45;;
32824;SDS011;51060;42.640;24.356;2023-04-15T12:00:46;4.85;;;3.30;;
32824;SDS011;51060;42.640;24.356;2023-04-15T12:03:16;4.55;;;2.88;;
32824;SDS011;51060;42.640;24.356;2023-04-15T12:11:17;5.38;;;3.33;;
32824;SDS011;51060;42.640;24.356;2023-04-15T12:13:46;6.88;;;4.50;;
32824;SDS011;51060;42.640;24.356;2023-04-15T12:16:16;4.90;;;3.53;;
32824;SDS011;51060;42.640;24.356;2023-04-15T12:18:49;9.57;;;6.18;;
32824;SDS011;51060;42.640;24.356;2023-04-15T12:21:22;14.10;;;9.30;;
32824;SDS011;51060;42.640;24.356;2023-04-15T12:23:52;3.30;;;2.40;;
32824;SDS011;51060;42.640;24.356;2023-04-15T12:26:28;6.10;;;4.13;;
32824;SDS011;51060;42.640;24.356;2023-04-15T12:29:02;14.13;;;10.80;;
32824;SDS011;51060;42.640;24.356;2023-04-15T12:31:29;15.35;;;9.88;;
32824;SDS011;51060;42.640;24.356;2023-04-15T12:33:55;19.70;;;14.25;;
32824;SDS011;51060;42.640;24.356;2023-04-15T12:36:22;7.45;;;5.05;;
32824;SDS011;51060;42.640;24.356;2023-04-15T12:38:48;3.90;;;2.70;;
32824;SDS011;51060;42.640;24.356;2023-04-15T12:41:14;6.30;;;4.40;;
32824;SDS011;51060;42.640;24.356;2023-04-15T12:43:40;3.20;;;2.10;;
32824;SDS011;51060;42.640;24.356;2023-04-15T12:46:06;3.53;;;2.25;;
32824;SDS011;51060;42.640;24.356;2023-04-15T12:48:33;5.63;;;4.07;;
32824;SDS011;51060;42.640;24.356;2023-04-15T12:50:58;5.40;;;2.28;;
32824;SDS011;51060;42.640;24.356;2023-04-15T12:53:24;3.33;;;1.98;;
32824;SDS011;51060;42.640;24.356;2023-04-15T12:55:50;2.35;;;1.90;;
32824;SDS011;51060;42.640;24.356;2023-04-15T12:58:16;3.38;;;2.28;;
32824;SDS011;51060;42.640;24.356;2023-04-15T13:00:42;4.93;;;3.03;;
32824;SDS011;51060;42.640;24.356;2023-04-15T13:03:07;4.90;;;3.28;;
32824;SDS011;51060;42.640;24.356;2023-04-15T13:05:33;5.53;;;2.80;;
32824;SDS011;51060;42.640;24.356;2023-04-15T13:08:01;3.40;;;2.22;;
32824;SDS011;51060;42.640;24.356;2023-04-15T13:10:28;4.35;;;2.53;;
32824;SDS011;51060;42.640;24.356;2023-04-15T13:12:53;3.78;;;2.30;;
32824;SDS011;51060;42.640;24.356;2023-04-15T13:15:21;3.58;;;2.55;;
32824;SDS011;51060;42.640;24.356;2023-04-15T13:17:47;8.60;;;6.65;;
32824;SDS011;51060;42.640;24.356;2023-04-15T13:20:13;4.63;;;2.80;;
32824;SDS011;51060;42.640;24.356;2023-04-15T13:22:39;3.60;;;3.15;;
32824;SDS011;51060;42.640;24.356;2023-04-15T13:25:05;3.55;;;2.55;;
32824;SDS011;51060;42.640;24.356;2023-04-15T13:27:32;3.10;;;2.60;;
32824;SDS011;51060;42.640;24.356;2023-04-15T13:29:58;3.13;;;2.30;;
32824;SDS011;51060;42.640;24.356;2023-04-15T13:32:24;4.07;;;3.35;;
32824;SDS011;51060;42.640;24.356;2023-04-15T13:34:49;2.90;;;2.55;;
32824;SDS011;51060;42.640;24.356;2023-04-15T13:37:15;5.53;;;3.05;;
32824;SDS011;51060;42.640;24.356;2023-04-15T13:39:41;4.68;;;3.22;;
32824;SDS011;51060;42.640;24.356;2023-04-15T13:42:06;4.97;;;3.55;;
32824;SDS011;51060;42.640;24.356;2023-04-15T13:44:32;3.72;;;2.83;;
32824;SDS011;51060;42.640;24.356;2023-04-15T13:46:58;4.43;;;3.65;;
32824;SDS011;51060;42.640;24.356;2023-04-15T13:49:23;5.20;;;2.78;;
32824;SDS011;51060;42.640;24.356;2023-04-15T13:51:49;5.47;;;4.38;;
32824;SDS011;51060;42.640;24.356;2023-04-15T13:54:15;4.45;;;2.72;;
32824;SDS011;51060;42.640;24.356;2023-04-15T13:56:41;3.35;;;2.33;;
32824;SDS011;51060;42.640;24.356;2023-04-15T13:59:06;3.83;;;3.42;;
32824;SDS011;51060;42.640;24.356;2023-04-15T14:01:33;4.78;;;3.08;;
32824;SDS011;51060;42.640;24.356;2023-04-15T14:03:59;5.03;;;4.25;;
32824;SDS011;51060;42.640;24.356;2023-04-15T14:06:24;4.40;;;3.80;;
32824;SDS011;51060;42.640;24.356;2023-04-15T14:08:51;3.92;;;2.85;;
32824;SDS011;51060;42.640;24.356;2023-04-15T14:11:17;4.10;;;3.10;;
32824;SDS011;51060;42.640;24.356;2023-04-15T14:13:43;3.05;;;2.70;;
32824;SDS011;51060;42.640;24.356;2023-04-15T14:16:08;4.18;;;2.50;;
32824;SDS011;51060;42.640;24.356;2023-04-15T14:18:34;4.55;;;3.65;;
32824;SDS011;51060;42.640;24.356;2023-04-15T14:21:01;4.10;;;3.70;;
32824;SDS011;51060;42.640;24.356;2023-04-15T14:23:27;4.82;;;3.53;;
32824;SDS011;51060;42.640;24.356;2023-04-15T14:25:53;5.68;;;4.35;;
32824;SDS011;51060;42.640;24.356;2023-04-15T14:28:18;7.63;;;4.90;;
32824;SDS011;51060;42.640;24.356;2023-04-15T14:30:44;5.70;;;4.78;;
32824;SDS011;51060;42.640;24.356;2023-04-15T14:33:10;6.80;;;5.40;;
32824;SDS011;51060;42.640;24.356;2023-04-15T14:35:36;8.15;;;5.93;;
32824;SDS011;51060;42.640;24.356;2023-04-15T14:38:02;6.30;;;4.43;;
32824;SDS011;51060;42.640;24.356;2023-04-15T14:40:27;9.77;;;6.90;;
32824;SDS011;51060;42.640;24.356;2023-04-15T14:42:53;8.00;;;5.93;;
32824;SDS011;51060;42.640;24.356;2023-04-15T14:45:18;14.48;;;11.23;;
32824;SDS011;51060;42.640;24.356;2023-04-15T14:47:44;12.13;;;8.50;;